Time;durP1;ratioP1;P1;durP2;ratioP2;P2;SDS_P1;SDS_P2;PMS_P1;PMS_P2;Temp;Humidity;BMP_temperature;BMP_pressure;BME280_temperature;BME280_humidity;BME280_pressure;Samples;Min_cycle;Max_cycle;Signal;HPM_P1;HPM_P2
2023/09/04 00:01:38;;;;;;;3.97;3.57;;;15.20;99.90;;;;;;5051782;28;20421;-70
2023/09/04 00:04:05;;;;;;;6.43;4.07;;;15.20;99.90;;;;;;5052748;28;20281;-69
2023/09/04 00:06:31;;;;;;;5.77;4.00;;;15.10;99.90;;;;;;5052602;28;20187;-70
2023/09/04 00:08:59;;;;;;;4.50;3.83;;;15.10;99.90;;;;;;5053147;28;20809;-69
2023/09/04 00:11:26;;;;;;;4.63;4.20;;;15.10;99.90;;;;;;5053073;28;20163;-70
2023/09/04 00:13:52;;;;;;;5.33;4.20;;;15.10;99.90;;;;;;5041610;28;20442;-70
2023/09/04 00:16:18;;;;;;;4.63;4.10;;;15.00;99.90;;;;;;5032736;28;20410;-70
2023/09/04 00:18:43;;;;;;;4.10;3.80;;;15.00;99.90;;;;;;5033014;28;20233;-70
2023/09/04 00:21:09;;;;;;;6.87;4.20;;;15.00;99.90;;;;;;5032946;28;20215;-70
2023/09/04 00:23:34;;;;;;;4.20;3.80;;;15.00;99.90;;;;;;5032798;28;20250;-70
2023/09/04 00:26:00;;;;;;;4.30;3.80;;;15.00;99.90;;;;;;5032644;28;20691;-70
2023/09/04 00:28:25;;;;;;;10.00;3.70;;;15.00;99.90;;;;;;5032773;28;20262;-70
2023/09/04 00:30:51;;;;;;;6.10;4.10;;;14.90;99.90;;;;;;5032731;28;20192;-70
2023/09/04 00:33:17;;;;;;;4.17;3.63;;;14.90;99.90;;;;;;5032709;28;20422;-69
2023/09/04 00:35:43;;;;;;;4.17;3.50;;;14.90;99.90;;;;;;5032463;28;20197;-70
2023/09/04 00:38:08;;;;;;;6.30;4.30;;;14.90;99.90;;;;;;5032671;28;20171;-69
2023/09/04 00:40:34;;;;;;;4.17;3.77;;;14.90;99.90;;;;;;5032608;28;20366;-70
2023/09/04 00:42:59;;;;;;;4.97;4.43;;;14.90;99.90;;;;;;5032318;28;20188;-69
2023/09/04 00:45:25;;;;;;;4.53;3.53;;;14.80;99.90;;;;;;5031955;28;20170;-70
2023/09/04 00:47:51;;;;;;;6.17;3.67;;;14.80;99.90;;;;;;5032367;28;20660;-70
2023/09/04 00:50:22;;;;;;;4.40;4.00;;;14.80;99.90;;;;;;5042367;28;20621;-71
2023/09/04 00:52:55;;;;;;;5.20;4.70;;;14.80;99.90;;;;;;5052230;28;20496;-71
2023/09/04 00:55:22;;;;;;;5.07;4.50;;;14.80;99.90;;;;;;5043879;28;20430;-71
2023/09/04 00:57:48;;;;;;;5.20;4.70;;;14.80;99.90;;;;;;5050179;28;20847;-70
2023/09/04 01:00:14;;;;;;;4.23;3.83;;;14.80;99.90;;;;;;5052190;28;20480;-70
2023/09/04 01:02:40;;;;;;;4.90;4.40;;;14.80;99.90;;;;;;5052222;28;20606;-71
2023/09/04 01:05:06;;;;;;;5.50;4.10;;;14.80;99.90;;;;;;5051745;28;20793;-70
2023/09/04 01:07:33;;;;;;;4.47;4.07;;;14.70;99.90;;;;;;5051958;28;20417;-71
2023/09/04 01:10:00;;;;;;;6.53;3.93;;;14.70;99.90;;;;;;5052053;28;20515;-71
2023/09/04 01:12:51;;;;;;;4.17;3.63;;;14.70;99.90;;;;;;5051911;28;20432;-70
2023/09/04 01:15:16;;;;;;;6.57;4.10;;;14.70;99.90;;;;;;5031673;28;20456;-71
2023/09/04 01:17:46;;;;;;;5.40;4.90;;;14.70;99.90;;;;;;5032065;28;20741;-71
2023/09/04 01:20:28;;;;;;;4.60;4.20;;;14.60;99.90;;;;;;5032030;28;20209;-70
2023/09/04 01:22:57;;;;;;;7.03;4.37;;;14.60;99.90;;;;;;5032009;28;20418;-71
2023/09/04 01:25:31;;;;;;;4.60;3.83;;;14.60;99.90;;;;;;5031891;28;20454;-71
2023/09/04 01:28:05;;;;;;;4.33;3.83;;;14.60;99.90;;;;;;5032055;28;20436;-71
2023/09/04 01:30:55;;;;;;;6.20;4.47;;;14.50;99.90;;;;;;5035667;28;20398;-71
2023/09/04 01:33:27;;;;;;;3.70;3.40;;;14.50;99.90;;;;;;5038534;28;20866;-71
2023/09/04 01:35:54;;;;;;;5.70;5.10;;;14.50;99.90;;;;;;5038287;28;20410;-71
2023/09/04 01:38:21;;;;;;;4.77;3.50;;;14.50;99.90;;;;;;5038670;28;20406;-71
2023/09/04 01:40:50;;;;;;;5.00;4.27;;;14.50;99.90;;;;;;5039125;28;20410;-70
2023/09/04 01:43:16;;;;;;;8.60;7.50;;;14.50;99.90;;;;;;5038329;28;20422;-70
2023/09/04 01:45:41;;;;;;;10.83;6.80;;;14.40;99.90;;;;;;5036959;28;20516;-71
2023/09/04 01:48:07;;;;;;;7.43;5.97;;;14.40;99.90;;;;;;5038382;28;20174;-71
2023/09/04 01:50:33;;;;;;;6.80;5.40;;;14.40;99.90;;;;;;5050010;28;20167;-70
2023/09/04 01:52:58;;;;;;;5.37;4.63;;;14.40;99.90;;;;;;5058197;28;20209;-70
2023/09/04 01:55:24;;;;;;;5.50;4.53;;;14.40;99.90;;;;;;5051510;28;20184;-70
2023/09/04 01:57:49;;;;;;;6.00;4.20;;;14.30;99.90;;;;;;5057442;28;20554;-71
2023/09/04 02:00:15;;;;;;;5.77;5.17;;;14.30;99.90;;;;;;5058008;28;20720;-71
2023/09/04 02:02:41;;;;;;;4.87;4.47;;;14.30;99.90;;;;;;5058066;28;20190;-70
2023/09/04 02:05:07;;;;;;;5.43;4.90;;;14.30;99.90;;;;;;5058129;28;20190;-70
2023/09/04 02:07:32;;;;;;;5.23;4.37;;;14.30;99.90;;;;;;5058163;28;20217;-70
2023/09/04 02:09:58;;;;;;;4.70;4.13;;;14.30;99.90;;;;;;5058240;28;20874;-71
2023/09/04 02:12:23;;;;;;;5.20;4.23;;;14.30;99.90;;;;;;5057681;28;20179;-71
2023/09/04 02:14:53;;;;;;;5.40;4.90;;;14.30;99.90;;;;;;5040302;28;20201;-71
2023/09/04 02:17:18;;;;;;;3.50;3.20;;;14.30;99.90;;;;;;5037024;28;20931;-70
2023/09/04 02:19:44;;;;;;;4.70;4.30;;;14.30;99.90;;;;;;5037974;28;20464;-71
2023/09/04 02:22:09;;;;;;;4.90;4.40;;;14.30;99.90;;;;;;5037938;28;20171;-71
2023/09/04 02:24:35;;;;;;;5.03;4.27;;;14.30;99.90;;;;;;5038042;28;20211;-70
2023/09/04 02:27:00;;;;;;;4.87;4.43;;;14.30;99.90;;;;;;5037757;28;20202;-70
2023/09/04 02:29:27;;;;;;;8.20;3.93;;;14.30;99.90;;;;;;5038042;28;20168;-71
2023/09/04 02:31:52;;;;;;;6.20;4.60;;;14.20;99.90;;;;;;5037693;28;20160;-71
2023/09/04 02:34:17;;;;;;;6.03;4.47;;;14.20;99.90;;;;;;5037841;28;20448;-71
2023/09/04 02:36:43;;;;;;;4.30;3.90;;;14.20;99.90;;;;;;5037495;28;20175;-70
2023/09/04 02:39:08;;;;;;;4.80;4.33;;;14.20;99.90;;;;;;5038062;28;20180;-71
2023/09/04 02:41:34;;;;;;;6.30;4.20;;;14.20;99.90;;;;;;5035223;28;20175;-71
2023/09/04 02:43:59;;;;;;;4.87;3.53;;;14.10;99.90;;;;;;5033377;28;20203;-71
2023/09/04 02:46:25;;;;;;;5.60;4.47;;;14.10;99.90;;;;;;5034861;28;20172;-70
2023/09/04 02:48:50;;;;;;;4.63;4.23;;;14.10;99.90;;;;;;5034705;28;20171;-71
2023/09/04 02:51:16;;;;;;;6.20;4.70;;;14.10;99.90;;;;;;5051674;28;20604;-71
2023/09/04 02:53:41;;;;;;;4.37;3.97;;;14.10;99.90;;;;;;5054483;28;20199;-71
2023/09/04 02:56:08;;;;;;;6.87;5.00;;;14.10;99.90;;;;;;5045394;28;20182;-70
2023/09/04 02:58:33;;;;;;;5.67;5.07;;;14.10;99.90;;;;;;5054036;28;20688;-70
2023/09/04 03:00:59;;;;;;;5.53;4.73;;;14.00;99.90;;;;;;5054404;28;20428;-70
2023/09/04 03:03:24;;;;;;;5.30;4.80;;;14.00;99.90;;;;;;5054301;28;20203;-70
2023/09/04 03:05:50;;;;;;;4.43;4.03;;;14.00;99.90;;;;;;5054164;28;20570;-71
2023/09/04 03:08:15;;;;;;;22.47;13.67;;;14.00;99.90;;;;;;5054372;28;20167;-70
2023/09/04 03:10:41;;;;;;;23.73;17.37;;;14.00;99.90;;;;;;5054314;28;20590;-70
2023/09/04 03:13:06;;;;;;;17.80;11.07;;;14.00;99.90;;;;;;5051306;28;20190;-69
2023/09/04 03:15:32;;;;;;;10.20;8.50;;;13.90;99.90;;;;;;5033954;28;20172;-71
2023/09/04 03:17:57;;;;;;;16.13;8.17;;;13.90;99.90;;;;;;5034201;28;20853;-71
2023/09/04 03:20:23;;;;;;;8.57;7.00;;;14.00;99.90;;;;;;5034142;28;20696;-71
2023/09/04 03:22:48;;;;;;;6.23;5.40;;;13.90;99.90;;;;;;5034025;28;20195;-69
2023/09/04 03:25:14;;;;;;;5.07;4.67;;;13.90;99.90;;;;;;5033730;28;20222;-70
2023/09/04 03:27:39;;;;;;;6.00;5.10;;;13.90;99.90;;;;;;5033911;28;20745;-70
2023/09/04 03:30:05;;;;;;;4.90;4.40;;;14.00;99.90;;;;;;5034084;28;20409;-70
2023/09/04 03:32:31;;;;;;;5.63;4.40;;;13.90;99.90;;;;;;5033745;28;20241;-71
2023/09/04 03:34:57;;;;;;;7.30;4.60;;;13.90;99.90;;;;;;5033535;28;20418;-71
2023/09/04 03:37:23;;;;;;;5.00;4.33;;;13.90;99.90;;;;;;5033489;28;20167;-71
2023/09/04 03:39:49;;;;;;;5.00;4.33;;;13.90;99.90;;;;;;5033770;28;20813;-71
2023/09/04 03:42:14;;;;;;;6.27;4.70;;;13.80;99.90;;;;;;5033673;28;20282;-71
2023/09/04 03:44:40;;;;;;;4.03;3.70;;;13.80;99.90;;;;;;5033542;28;20196;-70
2023/09/04 03:47:05;;;;;;;4.93;4.30;;;13.80;99.90;;;;;;5033348;28;20258;-71
2023/09/04 03:49:31;;;;;;;4.57;4.03;;;13.80;99.90;;;;;;5035398;28;20168;-71
2023/09/04 03:51:56;;;;;;;8.77;4.60;;;13.80;99.90;;;;;;5053474;28;20167;-71
2023/09/04 03:54:22;;;;;;;5.13;4.57;;;13.70;99.90;;;;;;5051470;28;20216;-72
2023/09/04 03:56:48;;;;;;;6.60;5.20;;;13.70;99.90;;;;;;5045354;28;20210;-71
2023/09/04 03:59:14;;;;;;;5.57;4.53;;;13.70;99.90;;;;;;5033471;28;20441;-71
2023/09/04 04:01:40;;;;;;;5.60;5.00;;;13.70;99.90;;;;;;5035970;28;20438;-70
2023/09/04 04:04:05;;;;;;;7.13;5.27;;;13.70;99.90;;;;;;5043906;28;20206;-70
2023/09/04 04:06:31;;;;;;;7.30;5.23;;;13.70;99.90;;;;;;5049007;28;20590;-71
2023/09/04 04:08:56;;;;;;;6.00;4.73;;;13.70;99.90;;;;;;5053193;28;20171;-71
2023/09/04 04:11:22;;;;;;;5.30;4.80;;;13.70;99.90;;;;;;5053113;28;20531;-71
2023/09/04 04:13:48;;;;;;;6.27;5.30;;;13.70;99.90;;;;;;5052890;28;20190;-70
2023/09/04 04:16:14;;;;;;;5.27;4.80;;;13.70;99.90;;;;;;5052488;28;20179;-71
2023/09/04 04:18:39;;;;;;;8.33;6.03;;;13.70;99.90;;;;;;5051192;28;20963;-71
2023/09/04 04:21:05;;;;;;;17.00;12.80;;;13.70;99.90;;;;;;5043424;28;20688;-71
2023/09/04 04:23:33;;;;;;;9.70;7.60;;;13.60;99.90;;;;;;5032803;28;20224;-71
2023/09/04 04:25:58;;;;;;;10.00;6.87;;;13.70;99.90;;;;;;5032636;28;20164;-71
2023/09/04 04:28:24;;;;;;;5.77;4.80;;;13.70;99.90;;;;;;5032831;28;20472;-70
2023/09/04 04:30:49;;;;;;;9.60;6.40;;;13.70;99.90;;;;;;5032763;28;20172;-71
2023/09/04 04:33:15;;;;;;;5.20;4.30;;;13.70;99.90;;;;;;5032663;28;20184;-72
2023/09/04 04:35:41;;;;;;;5.83;4.73;;;13.70;99.90;;;;;;5032377;28;20167;-70
2023/09/04 04:38:07;;;;;;;6.17;5.20;;;13.70;99.90;;;;;;5032590;28;20528;-71
2023/09/04 04:40:33;;;;;;;5.93;5.33;;;13.70;99.90;;;;;;5031925;28;20172;-71
2023/09/04 04:42:58;;;;;;;6.03;4.97;;;13.70;99.90;;;;;;5031094;28;20453;-71
2023/09/04 04:45:25;;;;;;;7.00;6.03;;;13.60;99.90;;;;;;5032140;28;20209;-71
2023/09/04 04:47:50;;;;;;;5.97;4.97;;;13.70;99.90;;;;;;5032475;28;20168;-70
2023/09/04 04:50:16;;;;;;;4.97;4.57;;;13.70;99.90;;;;;;5032480;28;20413;-71
2023/09/04 04:52:42;;;;;;;5.50;5.00;;;13.70;99.90;;;;;;5032282;28;20192;-71
2023/09/04 04:55:09;;;;;;;5.53;4.97;;;13.70;99.90;;;;;;5033558;28;20426;-71
2023/09/04 04:57:35;;;;;;;4.57;4.17;;;13.70;99.90;;;;;;5051905;28;20194;-70
2023/09/04 05:00:01;;;;;;;7.53;4.67;;;13.70;99.90;;;;;;5042801;28;20457;-70
2023/09/04 05:02:26;;;;;;;6.03;4.50;;;13.70;99.90;;;;;;5049394;28;20845;-71
2023/09/04 05:04:52;;;;;;;6.60;4.73;;;13.70;99.90;;;;;;5051151;28;20472;-71
2023/09/04 05:07:17;;;;;;;4.57;4.10;;;13.70;99.90;;;;;;5051675;28;20193;-71
2023/09/04 05:09:43;;;;;;;4.63;4.13;;;13.70;99.90;;;;;;5052014;28;20273;-71
2023/09/04 05:12:08;;;;;;;4.90;4.40;;;13.80;99.90;;;;;;5052053;28;20167;-71
2023/09/04 05:14:34;;;;;;;5.77;5.17;;;13.80;99.90;;;;;;5052090;28;20258;-71
2023/09/04 05:17:00;;;;;;;5.43;4.80;;;13.80;99.90;;;;;;5045857;28;20187;-71
2023/09/04 05:19:27;;;;;;;6.07;5.20;;;13.80;99.90;;;;;;5043560;28;20179;-71
2023/09/04 05:21:53;;;;;;;6.23;4.30;;;13.90;99.90;;;;;;5051602;28;20183;-71
2023/09/04 05:24:18;;;;;;;5.13;4.47;;;13.90;99.90;;;;;;5051654;28;20563;-71
2023/09/04 05:26:44;;;;;;;4.50;4.03;;;14.00;99.90;;;;;;5051438;28;20171;-71
2023/09/04 05:29:09;;;;;;;4.87;4.43;;;14.10;99.90;;;;;;5051689;28;20174;-70
2023/09/04 05:31:35;;;;;;;4.90;4.40;;;14.10;99.90;;;;;;5051861;28;20190;-71
2023/09/04 05:34:00;;;;;;;4.60;4.20;;;14.30;99.90;;;;;;5051695;28;20194;-72
2023/09/04 05:36:26;;;;;;;6.50;5.20;;;14.40;99.90;;;;;;5051543;28;20632;-71
2023/09/04 05:38:51;;;;;;;4.57;3.90;;;14.60;99.90;;;;;;5051686;28;20194;-72
2023/09/04 05:41:17;;;;;;;6.80;4.70;;;14.80;99.90;;;;;;5051758;28;20167;-71
2023/09/04 05:43:42;;;;;;;5.90;5.30;;;15.00;99.90;;;;;;5051521;28;20706;-71
2023/09/04 05:46:08;;;;;;;6.47;5.77;;;15.20;99.90;;;;;;5041866;28;20178;-71
2023/09/04 05:48:34;;;;;;;8.40;6.93;;;15.30;99.90;;;;;;5045121;28;20171;-72
2023/09/04 05:51:01;;;;;;;7.20;5.87;;;15.40;99.90;;;;;;5051604;28;20179;-71
2023/09/04 05:53:26;;;;;;;8.00;5.47;;;15.50;99.90;;;;;;5051513;28;20425;-71
2023/09/04 05:56:06;;;;;;;8.23;5.67;;;15.70;99.90;;;;;;5043102;28;20422;-72
2023/09/04 05:58:31;;;;;;;6.03;5.53;;;15.90;99.90;;;;;;5047788;28;20168;-72
2023/09/04 06:00:57;;;;;;;5.83;5.33;;;16.10;99.90;;;;;;5047964;28;20900;-72
2023/09/04 06:03:23;;;;;;;6.57;5.87;;;16.40;99.90;;;;;;5046294;28;20187;-72
2023/09/04 06:05:49;;;;;;;7.87;5.60;;;16.80;99.90;;;;;;5051035;28;20205;-72
2023/09/04 06:08:18;;;;;;;7.50;6.70;;;16.90;99.90;;;;;;5050230;28;20444;-72
2023/09/04 06:10:43;;;;;;;7.03;5.00;;;17.10;99.90;;;;;;5051416;28;20205;-72
2023/09/04 06:13:09;;;;;;;8.13;6.03;;;17.50;99.90;;;;;;5051249;28;20465;-71
2023/09/04 06:15:34;;;;;;;6.80;6.10;;;18.10;99.90;;;;;;5051449;28;20644;-71
2023/09/04 06:18:00;;;;;;;8.23;5.70;;;18.70;99.90;;;;;;5055241;28;20171;-72
2023/09/04 06:20:25;;;;;;;5.00;4.37;;;19.30;99.90;;;;;;5055162;28;20178;-72
2023/09/04 06:22:51;;;;;;;5.30;4.67;;;19.90;99.90;;;;;;5054964;28;20187;-72
2023/09/04 06:25:17;;;;;;;5.57;3.97;;;20.30;99.90;;;;;;5054767;28;20199;-72
2023/09/04 06:27:43;;;;;;;3.83;3.50;;;20.90;99.90;;;;;;5052512;28;21934;-71
2023/09/04 06:30:09;;;;;;;4.33;3.67;;;21.40;99.90;;;;;;5035065;28;20430;-72
2023/09/04 06:32:34;;;;;;;4.13;3.73;;;21.80;99.90;;;;;;5044611;28;20845;-72
2023/09/04 06:35:00;;;;;;;5.43;4.80;;;22.20;99.90;;;;;;5054524;28;20484;-72
2023/09/04 06:37:26;;;;;;;6.07;4.10;;;21.90;99.90;;;;;;5054740;28;20175;-72
2023/09/04 06:39:51;;;;;;;3.93;3.53;;;22.00;99.90;;;;;;5054774;28;20167;-72
2023/09/04 06:42:17;;;;;;;3.23;2.93;;;21.90;99.90;;;;;;5054794;28;20167;-72
2023/09/04 06:44:43;;;;;;;4.00;3.43;;;21.60;99.90;;;;;;5054683;28;20210;-71
2023/09/04 06:47:09;;;;;;;3.73;3.43;;;21.30;99.90;;;;;;5054432;28;20181;-71
2023/09/04 06:49:34;;;;;;;4.10;3.13;;;21.10;99.90;;;;;;5054666;28;20890;-72
2023/09/04 06:52:00;;;;;;;4.77;3.40;;;20.70;99.90;;;;;;5041818;28;20178;-72
2023/09/04 06:54:26;;;;;;;5.40;4.17;;;20.10;99.90;;;;;;5041597;28;20193;-71
2023/09/04 06:56:51;;;;;;;4.73;4.23;;;19.80;99.90;;;;;;5032619;28;20186;-72
2023/09/04 06:59:17;;;;;;;3.70;3.20;;;19.80;99.90;;;;;;5048669;28;20170;-72
2023/09/04 07:01:42;;;;;;;3.60;3.03;;;20.20;99.90;;;;;;5054346;28;20186;-72
2023/09/04 07:04:08;;;;;;;4.43;3.70;;;20.50;99.90;;;;;;5049068;28;20242;-71
2023/09/04 07:06:33;;;;;;;9.43;5.67;;;20.50;99.90;;;;;;5050312;28;20278;-71
2023/09/04 07:08:59;;;;;;;4.20;3.20;;;20.50;99.90;;;;;;5054265;28;20167;-72
2023/09/04 07:11:24;;;;;;;2.67;2.47;;;20.50;99.90;;;;;;5052950;28;20535;-72
2023/09/04 07:13:52;;;;;;;3.20;2.17;;;20.40;99.90;;;;;;5054151;28;20183;-70
2023/09/04 07:16:17;;;;;;;3.13;2.80;;;20.70;99.90;;;;;;5053980;28;20630;-71
2023/09/04 07:18:43;;;;;;;2.67;2.47;;;21.70;99.90;;;;;;5054139;28;20475;-72
2023/09/04 07:21:08;;;;;;;2.80;2.50;;;23.10;99.90;;;;;;5054037;28;20171;-71
2023/09/04 07:23:34;;;;;;;5.13;3.10;;;24.50;99.90;;;;;;5053875;28;20203;-73
2023/09/04 07:25:59;;;;;;;2.80;2.47;;;25.80;99.90;;;;;;5053624;28;20159;-72
2023/09/04 07:28:25;;;;;;;2.67;2.47;;;26.40;99.90;;;;;;5053225;28;20174;-70
2023/09/04 07:31:08;;;;;;;2.73;2.43;;;26.90;99.90;;;;;;5053928;28;20250;-69
2023/09/04 07:33:33;;;;;;;2.33;2.13;;;27.50;98.40;;;;;;5053790;28;20207;-71
2023/09/04 07:35:59;;;;;;;2.23;2.03;;;27.40;92.80;;;;;;5053389;28;20444;-71
2023/09/04 07:38:25;;;;;;;3.83;2.77;;;26.80;93.50;;;;;;5053744;28;20586;-71
2023/09/04 07:41:00;;;;;;;2.67;2.47;;;25.90;94.20;;;;;;5053722;28;20181;-70
2023/09/04 07:43:25;;;;;;;2.40;2.20;;;25.10;96.90;;;;;;5053538;28;20429;-71
2023/09/04 07:45:52;;;;;;;3.50;3.20;;;24.60;99.80;;;;;;5053310;28;20456;-70
2023/09/04 07:48:18;;;;;;;2.27;2.07;;;24.40;99.90;;;;;;5053604;28;20171;-70
2023/09/04 07:50:43;;;;;;;2.40;2.20;;;24.70;99.90;;;;;;5053487;28;20913;-71
2023/09/04 07:53:09;;;;;;;2.80;2.20;;;25.20;99.90;;;;;;5053384;28;20557;-72
2023/09/04 07:55:35;;;;;;;6.60;2.60;;;24.90;99.90;;;;;;5044231;28;20179;-72
2023/09/04 07:58:00;;;;;;;2.80;2.60;;;24.90;99.90;;;;;;5045026;28;20217;-71
2023/09/04 08:00:26;;;;;;;6.27;2.70;;;24.40;99.90;;;;;;5037687;28;20598;-71
2023/09/04 08:02:51;;;;;;;3.93;2.73;;;23.90;99.90;;;;;;5049555;28;20199;-70
2023/09/04 08:05:17;;;;;;;2.53;2.33;;;23.60;99.90;;;;;;5047070;28;20250;-71
2023/09/04 08:07:42;;;;;;;2.43;2.23;;;23.30;99.90;;;;;;5052896;28;20191;-71
2023/09/04 08:10:08;;;;;;;2.47;2.13;;;23.30;99.90;;;;;;5053028;28;20245;-70
2023/09/04 08:12:34;;;;;;;2.90;2.70;;;23.30;99.90;;;;;;5053038;28;20187;-70
2023/09/04 08:14:59;;;;;;;2.80;2.60;;;23.60;99.90;;;;;;5052721;28;20465;-68
2023/09/04 08:17:26;;;;;;;2.33;2.13;;;23.80;99.90;;;;;;5053030;28;20175;-71
2023/09/04 08:19:51;;;;;;;4.03;2.43;;;23.90;99.90;;;;;;5053026;28;20857;-70
2023/09/04 08:22:17;;;;;;;5.13;2.83;;;24.30;99.90;;;;;;5052790;28;20444;-71
2023/09/04 08:24:42;;;;;;;2.57;2.37;;;25.50;99.90;;;;;;5052827;28;20213;-70
2023/09/04 08:27:08;;;;;;;2.20;2.00;;;27.40;99.90;;;;;;5052532;28;20216;-72
2023/09/04 08:29:33;;;;;;;2.73;2.17;;;29.70;93.90;;;;;;5052816;28;20163;-71
2023/09/04 08:31:59;;;;;;;1.90;1.80;;;31.20;79.00;;;;;;5052770;28;20174;-71
2023/09/04 08:34:24;;;;;;;3.20;3.00;;;33.50;68.60;;;;;;5052573;28;20199;-71
2023/09/04 08:36:50;;;;;;;2.87;2.60;;;35.40;57.20;;;;;;5052195;28;20179;-71
2023/09/04 08:39:15;;;;;;;3.40;2.30;;;36.60;49.70;;;;;;5051707;28;20662;-72
2023/09/04 08:41:41;;;;;;;2.50;2.30;;;37.90;48.20;;;;;;5052468;28;20221;-71
2023/09/04 08:44:08;;;;;;;2.50;2.10;;;38.30;44.60;;;;;;5051110;28;20256;-72
2023/09/04 08:46:35;;;;;;;2.00;1.80;;;38.90;42.80;;;;;;5050874;28;20175;-71
2023/09/04 08:49:02;;;;;;;2.27;2.07;;;40.00;41.40;;;;;;5052382;28;20444;-71
2023/09/04 08:51:29;;;;;;;2.20;2.10;;;41.10;39.70;;;;;;5052344;28;20405;-72
2023/09/04 08:53:56;;;;;;;2.93;2.73;;;41.80;37.70;;;;;;5051088;28;20472;-72
2023/09/04 08:56:21;;;;;;;3.40;2.90;;;42.80;35.70;;;;;;5052063;28;20497;-72
2023/09/04 08:58:47;;;;;;;3.00;2.70;;;43.80;35.20;;;;;;5052299;28;20913;-72
2023/09/04 09:01:15;;;;;;;3.33;2.30;;;43.70;32.80;;;;;;5052243;28;20455;-72
2023/09/04 09:03:42;;;;;;;2.93;2.70;;;44.50;33.10;;;;;;5052096;28;20194;-72
2023/09/04 09:06:08;;;;;;;3.00;2.73;;;45.20;32.20;;;;;;5051792;28;20460;-73
2023/09/04 09:08:35;;;;;;;4.80;3.10;;;45.50;30.70;;;;;;5052059;28;20372;-72
2023/09/04 09:11:03;;;;;;;3.00;2.80;;;45.40;30.00;;;;;;5052148;28;20888;-73
2023/09/04 09:13:28;;;;;;;2.60;2.40;;;45.00;29.60;;;;;;5051997;28;20478;-72
2023/09/04 09:15:54;;;;;;;2.87;2.67;;;44.90;30.30;;;;;;5051807;28;20504;-73
2023/09/04 09:18:47;;;;;;;2.70;2.50;;;45.00;30.20;;;;;;5050638;28;20163;-72
2023/09/04 09:21:27;;;;;;;3.00;2.80;;;45.20;30.10;;;;;;5050850;28;20171;-73
2023/09/04 09:24:25;;;;;;;3.00;2.80;;;44.80;29.60;;;;;;5051841;28;20936;-70
2023/09/04 09:26:50;;;;;;;3.33;3.03;;;45.10;30.00;;;;;;5039470;28;20504;-70
2023/09/04 09:29:19;;;;;;;2.77;2.57;;;45.50;30.00;;;;;;5051894;28;20481;-72
2023/09/04 09:31:46;;;;;;;2.47;2.27;;;46.80;30.10;;;;;;5051820;28;20224;-74
2023/09/04 09:34:12;;;;;;;3.67;3.00;;;47.40;28.90;;;;;;5051777;28;20425;-71
2023/09/04 09:36:38;;;;;;;2.83;2.63;;;47.50;28.30;;;;;;5051364;28;20401;-73
2023/09/04 09:39:05;;;;;;;2.93;2.73;;;47.30;28.10;;;;;;5051803;28;20880;-73
2023/09/04 09:41:31;;;;;;;4.27;2.53;;;47.40;28.10;;;;;;5051712;28;20405;-73
2023/09/04 09:44:00;;;;;;;2.63;2.40;;;48.50;28.20;;;;;;5051566;28;20951;-70
2023/09/04 09:46:27;;;;;;;3.20;3.00;;;49.30;28.50;;;;;;5051403;28;20514;-71
2023/09/04 09:48:52;;;;;;;3.10;2.90;;;49.30;26.40;;;;;;5051670;28;20368;-71
2023/09/04 09:51:18;;;;;;;2.80;2.60;;;48.70;26.70;;;;;;5047288;28;20407;-69
2023/09/04 09:53:49;;;;;;;2.50;2.30;;;48.60;26.70;;;;;;5048788;28;20230;-70
2023/09/04 09:56:16;;;;;;;2.80;2.60;;;48.50;26.90;;;;;;5046736;28;20167;-70
2023/09/04 09:58:45;;;;;;;3.40;2.80;;;48.50;26.20;;;;;;5046058;28;20407;-73
2023/09/04 10:01:12;;;;;;;3.03;2.83;;;48.90;26.60;;;;;;5058421;28;20820;-74
2023/09/04 10:03:38;;;;;;;3.00;2.80;;;48.30;25.90;;;;;;5056602;28;20432;-74
2023/09/04 10:06:05;;;;;;;2.77;2.43;;;48.00;26.60;;;;;;5056721;28;20403;-75
2023/09/04 10:08:44;;;;;;;2.90;2.70;;;47.90;26.80;;;;;;5056695;28;20415;-75
2023/09/04 10:11:13;;;;;;;2.70;2.50;;;47.80;26.30;;;;;;5056817;28;20409;-75
2023/09/04 10:14:03;;;;;;;2.93;2.73;;;47.50;27.20;;;;;;5058171;28;20407;-74
2023/09/04 10:16:32;;;;;;;2.90;2.70;;;48.60;27.40;;;;;;5055027;28;20490;-74
2023/09/04 10:19:01;;;;;;;2.77;2.57;;;48.40;26.10;;;;;;5055723;28;20885;-73
2023/09/04 10:21:33;;;;;;;2.87;2.67;;;48.90;25.90;;;;;;5057918;28;20490;-73
2023/09/04 10:24:03;;;;;;;2.90;2.70;;;49.10;25.90;;;;;;5044943;28;20427;-73
2023/09/04 10:26:57;;;;;;;3.23;3.03;;;49.10;25.20;;;;;;5057678;28;20840;-75
2023/09/04 10:29:28;;;;;;;2.67;2.47;;;48.50;25.00;;;;;;5046723;28;20456;-74
2023/09/04 10:31:54;;;;;;;2.47;2.30;;;47.80;25.00;;;;;;5057128;28;20407;-73
2023/09/04 10:34:20;;;;;;;4.60;2.57;;;48.00;25.50;;;;;;5057567;28;20396;-72
2023/09/04 10:36:48;;;;;;;3.20;3.00;;;47.80;25.50;;;;;;5050823;28;20429;-74
2023/09/04 10:39:13;;;;;;;3.00;2.70;;;47.40;25.50;;;;;;5038224;28;20259;-73
2023/09/04 10:41:39;;;;;;;2.73;2.50;;;46.80;25.80;;;;;;5044245;28;20884;-74
2023/09/04 10:44:05;;;;;;;2.80;2.60;;;46.50;25.90;;;;;;5044623;28;20302;-72
2023/09/04 10:46:30;;;;;;;2.70;2.50;;;46.60;26.70;;;;;;5046155;28;20248;-74
2023/09/04 10:48:56;;;;;;;3.00;2.80;;;46.70;26.30;;;;;;5046758;28;20179;-73
2023/09/04 10:51:46;;;;;;;2.53;2.43;;;47.00;26.20;;;;;;5048722;28;20234;-71
2023/09/04 10:54:17;;;;;;;3.03;2.83;;;46.50;25.60;;;;;;5044172;28;20217;-72
2023/09/04 10:56:56;;;;;;;2.60;2.40;;;46.40;26.40;;;;;;5043548;28;20422;-72
2023/09/04 10:59:22;;;;;;;3.30;2.50;;;47.00;26.70;;;;;;5041016;28;20388;-71
2023/09/04 11:01:47;;;;;;;4.60;2.40;;;47.50;26.60;;;;;;5053969;28;20410;-71
2023/09/04 11:04:45;;;;;;;3.07;2.60;;;47.30;25.60;;;;;;5053495;28;20346;-72
2023/09/04 11:07:19;;;;;;;2.43;2.20;;;46.90;25.80;;;;;;5053916;28;20178;-73
2023/09/04 11:09:45;;;;;;;2.60;2.50;;;46.30;25.90;;;;;;5049010;28;20397;-72
2023/09/04 11:12:17;;;;;;;2.93;2.73;;;46.60;26.00;;;;;;5052715;28;20940;-73
2023/09/04 11:14:47;;;;;;;2.50;2.37;;;46.90;25.40;;;;;;5057205;28;20403;-73
2023/09/04 11:17:16;;;;;;;2.63;2.53;;;46.50;25.20;;;;;;5055004;28;20419;-72
2023/09/04 11:19:43;;;;;;;3.87;2.77;;;46.40;25.60;;;;;;5054109;28;20429;-72
2023/09/04 11:22:24;;;;;;;2.70;2.50;;;47.20;27.20;;;;;;5053984;28;20376;-72
2023/09/04 11:24:51;;;;;;;2.83;2.63;;;48.10;26.50;;;;;;5053975;28;20809;-72
2023/09/04 11:27:17;;;;;;;2.77;2.57;;;48.90;25.80;;;;;;5055924;28;20873;-72
2023/09/04 11:29:42;;;;;;;2.70;2.50;;;49.80;25.50;;;;;;5056288;28;20415;-73
2023/09/04 11:32:08;;;;;;;2.90;2.70;;;50.20;24.20;;;;;;5048566;28;20247;-73
2023/09/04 11:34:34;;;;;;;3.07;2.80;;;50.10;23.80;;;;;;5036231;28;20195;-73
2023/09/04 11:36:59;;;;;;;2.50;2.40;;;49.80;23.20;;;;;;5035492;28;20197;-73
2023/09/04 11:39:25;;;;;;;2.50;2.37;;;49.70;23.90;;;;;;5038575;28;20171;-73
2023/09/04 11:41:51;;;;;;;3.00;2.80;;;49.50;23.90;;;;;;5055382;28;20204;-73
2023/09/04 11:44:16;;;;;;;3.03;2.83;;;49.80;24.00;;;;;;5055299;28;20285;-73
2023/09/04 11:46:43;;;;;;;2.80;2.60;;;50.10;24.10;;;;;;5055858;28;20309;-73
2023/09/04 11:49:09;;;;;;;2.90;2.70;;;50.50;23.60;;;;;;5049572;28;20176;-73
2023/09/04 11:51:36;;;;;;;2.87;2.67;;;49.90;23.30;;;;;;5045951;28;20525;-73
2023/09/04 11:54:08;;;;;;;3.00;2.80;;;50.50;25.10;;;;;;5055849;28;20437;-73
2023/09/04 11:56:34;;;;;;;3.13;2.90;;;51.10;24.00;;;;;;5049456;28;20405;-73
2023/09/04 11:59:02;;;;;;;2.67;2.47;;;51.10;22.80;;;;;;5044008;28;20414;-74
2023/09/04 12:01:28;;;;;;;3.07;2.87;;;50.90;23.70;;;;;;5055519;28;20395;-73
2023/09/04 12:03:54;;;;;;;2.77;2.57;;;50.50;23.90;;;;;;5048979;28;20443;-72
2023/09/04 12:06:25;;;;;;;2.70;2.50;;;50.50;23.80;;;;;;5044770;28;20761;-72
2023/09/04 12:08:50;;;;;;;2.87;2.67;;;50.20;24.00;;;;;;5055712;28;20639;-73
2023/09/04 12:11:16;;;;;;;3.07;2.80;;;49.80;24.20;;;;;;5054612;28;20383;-72
2023/09/04 12:13:42;;;;;;;4.10;2.80;;;49.50;24.10;;;;;;5055070;28;20190;-73
2023/09/04 12:16:08;;;;;;;2.37;2.20;;;49.30;24.50;;;;;;5054402;28;20195;-72
2023/09/04 12:18:37;;;;;;;3.00;2.80;;;50.00;24.90;;;;;;5053251;28;20171;-72
2023/09/04 12:21:10;;;;;;;3.60;3.30;;;49.30;24.20;;;;;;5053594;28;20415;-72
2023/09/04 12:23:43;;;;;;;3.13;2.93;;;49.50;24.60;;;;;;5053952;28;20430;-72
2023/09/04 12:26:10;;;;;;;3.93;2.43;;;49.30;24.00;;;;;;5055344;28;20437;-72
2023/09/04 12:28:36;;;;;;;2.77;2.57;;;48.70;23.80;;;;;;5055105;28;20391;-72
2023/09/04 12:31:02;;;;;;;2.80;2.60;;;48.70;24.50;;;;;;5055574;28;20380;-72
2023/09/04 12:33:28;;;;;;;2.70;2.50;;;48.40;24.40;;;;;;5054281;28;20594;-72
2023/09/04 12:35:56;;;;;;;2.53;2.43;;;48.20;24.70;;;;;;5052490;28;20432;-72
2023/09/04 12:38:22;;;;;;;3.13;2.77;;;47.90;24.80;;;;;;5052524;28;20178;-72
2023/09/04 12:40:48;;;;;;;2.57;2.40;;;48.00;25.20;;;;;;5052648;28;20389;-72
2023/09/04 12:43:13;;;;;;;8.23;2.90;;;48.20;24.90;;;;;;5052473;28;20236;-71
2023/09/04 12:45:39;;;;;;;3.03;2.73;;;48.70;24.70;;;;;;5052210;28;20197;-72